Terminal Aerodrome Forecast
Issued by NWS La Crosse, WI

Home | Current Version | Previous Version | Text Only | Print | Product List | Glossary On
Versions: 1 2 3 4 5 6 7 8 9 10 11 12 13 14 15 16 17 18 19 20 21 22 23 24 25 26 27 28 29 30 31
000
FTUS43 KARX 252056 AAB
TAFLSE
TAF AMD
KLSE 252056Z 2521/2618 VRB05KT P6SM VCSH SCT050 BKN080
     FM260400 12008KT 5SM -SHRA BR OVC030
     FM261000 15005KT 5SM -SHRA BR SCT008 OVC010
     FM261600 25006KT 5SM -SHRA BR OVC010=

USA.gov is the U.S. government's official web portal to all federal, state and local government web resources and services.